sensor_id;sensor_type;location;lat;lon;timestamp;P1;durP1;ratioP1;P2;durP2;ratioP2
60078;SDS011;45951;45.824;8.824;2024-03-29T00:00:07;6.38;;;4.38;;
60078;SDS011;45951;45.824;8.824;2024-03-29T00:01:48;6.88;;;4.43;;
60078;SDS011;45951;45.824;8.824;2024-03-29T00:03:28;6.27;;;4.27;;
60078;SDS011;45951;45.824;8.824;2024-03-29T00:05:08;7.00;;;4.73;;
60078;SDS011;45951;45.824;8.824;2024-03-29T00:06:48;7.73;;;5.00;;
60078;SDS011;45951;45.824;8.824;2024-03-29T00:08:28;7.63;;;4.83;;
60078;SDS011;45951;45.824;8.824;2024-03-29T00:10:09;6.03;;;4.37;;
60078;SDS011;45951;45.824;8.824;2024-03-29T00:11:49;7.27;;;4.90;;
60078;SDS011;45951;45.824;8.824;2024-03-29T00:13:29;6.93;;;4.67;;
60078;SDS011;45951;45.824;8.824;2024-03-29T00:15:09;7.97;;;5.10;;
60078;SDS011;45951;45.824;8.824;2024-03-29T00:16:49;7.03;;;4.63;;
60078;SDS011;45951;45.824;8.824;2024-03-29T00:18:29;7.07;;;4.60;;
60078;SDS011;45951;45.824;8.824;2024-03-29T00:20:10;6.63;;;4.90;;
60078;SDS011;45951;45.824;8.824;2024-03-29T00:21:51;7.25;;;5.18;;
60078;SDS011;45951;45.824;8.824;2024-03-29T00:23:32;6.83;;;5.20;;
60078;SDS011;45951;45.824;8.824;2024-03-29T00:25:12;7.70;;;4.60;;
60078;SDS011;45951;45.824;8.824;2024-03-29T00:26:52;6.97;;;4.85;;
60078;SDS011;45951;45.824;8.824;2024-03-29T00:28:32;5.60;;;4.07;;
60078;SDS011;45951;45.824;8.824;2024-03-29T00:30:12;6.70;;;4.17;;
60078;SDS011;45951;45.824;8.824;2024-03-29T00:31:53;7.22;;;5.07;;
60078;SDS011;45951;45.824;8.824;2024-03-29T00:33:33;6.63;;;4.50;;
60078;SDS011;45951;45.824;8.824;2024-03-29T00:35:13;6.65;;;4.30;;
60078;SDS011;45951;45.824;8.824;2024-03-29T00:36:54;5.97;;;4.10;;
60078;SDS011;45951;45.824;8.824;2024-03-29T00:38:34;6.57;;;4.33;;
60078;SDS011;45951;45.824;8.824;2024-03-29T00:40:15;6.20;;;4.15;;
60078;SDS011;45951;45.824;8.824;2024-03-29T00:41:55;7.25;;;4.43;;
60078;SDS011;45951;45.824;8.824;2024-03-29T00:43:36;6.70;;;4.20;;
60078;SDS011;45951;45.824;8.824;2024-03-29T00:45:16;7.13;;;4.40;;
60078;SDS011;45951;45.824;8.824;2024-03-29T00:46:56;5.13;;;3.50;;
60078;SDS011;45951;45.824;8.824;2024-03-29T00:48:37;6.13;;;3.97;;
60078;SDS011;45951;45.824;8.824;2024-03-29T00:50:17;6.20;;;4.23;;
60078;SDS011;45951;45.824;8.824;2024-03-29T00:51:57;6.13;;;3.90;;
60078;SDS011;45951;45.824;8.824;2024-03-29T00:53:37;6.90;;;4.20;;
60078;SDS011;45951;45.824;8.824;2024-03-29T00:55:17;5.80;;;3.60;;
60078;SDS011;45951;45.824;8.824;2024-03-29T00:56:58;6.63;;;4.20;;
60078;SDS011;45951;45.824;8.824;2024-03-29T00:58:38;5.60;;;3.97;;
60078;SDS011;45951;45.824;8.824;2024-03-29T01:00:18;5.73;;;3.83;;
60078;SDS011;45951;45.824;8.824;2024-03-29T01:01:58;7.15;;;4.03;;
60078;SDS011;45951;45.824;8.824;2024-03-29T01:03:39;5.32;;;3.75;;
60078;SDS011;45951;45.824;8.824;2024-03-29T01:05:19;5.90;;;3.83;;
60078;SDS011;45951;45.824;8.824;2024-03-29T01:06:59;5.50;;;3.70;;
60078;SDS011;45951;45.824;8.824;2024-03-29T01:08:39;5.40;;;3.57;;
60078;SDS011;45951;45.824;8.824;2024-03-29T01:10:19;6.17;;;4.00;;
60078;SDS011;45951;45.824;8.824;2024-03-29T01:12:02;6.03;;;3.78;;
60078;SDS011;45951;45.824;8.824;2024-03-29T01:13:42;5.97;;;3.70;;
60078;SDS011;45951;45.824;8.824;2024-03-29T01:15:22;6.17;;;3.70;;
60078;SDS011;45951;45.824;8.824;2024-03-29T01:17:02;4.97;;;3.57;;
60078;SDS011;45951;45.824;8.824;2024-03-29T01:18:42;4.97;;;3.25;;
60078;SDS011;45951;45.824;8.824;2024-03-29T01:20:23;6.05;;;3.85;;
60078;SDS011;45951;45.824;8.824;2024-03-29T01:22:04;5.57;;;3.33;;
60078;SDS011;45951;45.824;8.824;2024-03-29T01:23:44;4.53;;;2.92;;
60078;SDS011;45951;45.824;8.824;2024-03-29T01:25:24;6.93;;;3.90;;
60078;SDS011;45951;45.824;8.824;2024-03-29T01:27:05;5.18;;;3.40;;
60078;SDS011;45951;45.824;8.824;2024-03-29T01:28:46;6.10;;;3.70;;
60078;SDS011;45951;45.824;8.824;2024-03-29T01:30:26;5.80;;;3.43;;
60078;SDS011;45951;45.824;8.824;2024-03-29T01:32:07;5.55;;;3.45;;
60078;SDS011;45951;45.824;8.824;2024-03-29T01:33:47;4.97;;;3.17;;
60078;SDS011;45951;45.824;8.824;2024-03-29T01:35:27;5.03;;;3.10;;
60078;SDS011;45951;45.824;8.824;2024-03-29T01:37:07;5.23;;;3.10;;
60078;SDS011;45951;45.824;8.824;2024-03-29T01:38:47;5.80;;;2.90;;
60078;SDS011;45951;45.824;8.824;2024-03-29T01:40:29;5.00;;;3.28;;
60078;SDS011;45951;45.824;8.824;2024-03-29T01:42:09;4.67;;;2.73;;
60078;SDS011;45951;45.824;8.824;2024-03-29T01:43:49;4.87;;;3.07;;
60078;SDS011;45951;45.824;8.824;2024-03-29T01:45:30;5.28;;;2.90;;
60078;SDS011;45951;45.824;8.824;2024-03-29T01:47:11;4.43;;;2.55;;
60078;SDS011;45951;45.824;8.824;2024-03-29T01:48:51;5.03;;;3.10;;
60078;SDS011;45951;45.824;8.824;2024-03-29T01:50:32;4.95;;;2.92;;
60078;SDS011;45951;45.824;8.824;2024-03-29T01:52:13;5.18;;;2.90;;
60078;SDS011;45951;45.824;8.824;2024-03-29T01:53:55;4.47;;;2.83;;
60078;SDS011;45951;45.824;8.824;2024-03-29T01:55:35;3.78;;;2.60;;
60078;SDS011;45951;45.824;8.824;2024-03-29T01:57:16;4.40;;;2.80;;
60078;SDS011;45951;45.824;8.824;2024-03-29T01:58:56;4.55;;;2.92;;
60078;SDS011;45951;45.824;8.824;2024-03-29T02:00:38;4.03;;;2.47;;
60078;SDS011;45951;45.824;8.824;2024-03-29T02:02:21;4.97;;;2.80;;
60078;SDS011;45951;45.824;8.824;2024-03-29T02:04:02;4.32;;;2.60;;
60078;SDS011;45951;45.824;8.824;2024-03-29T02:05:43;4.95;;;2.63;;
60078;SDS011;45951;45.824;8.824;2024-03-29T02:07:23;5.70;;;2.53;;
60078;SDS011;45951;45.824;8.824;2024-03-29T02:09:03;3.67;;;2.10;;
60078;SDS011;45951;45.824;8.824;2024-03-29T02:10:45;4.13;;;2.27;;
60078;SDS011;45951;45.824;8.824;2024-03-29T02:12:25;4.05;;;2.38;;
60078;SDS011;45951;45.824;8.824;2024-03-29T02:14:05;6.47;;;2.33;;
60078;SDS011;45951;45.824;8.824;2024-03-29T02:15:46;3.85;;;2.25;;
60078;SDS011;45951;45.824;8.824;2024-03-29T02:17:26;3.63;;;2.27;;
60078;SDS011;45951;45.824;8.824;2024-03-29T02:19:06;4.00;;;2.63;;
60078;SDS011;45951;45.824;8.824;2024-03-29T02:20:47;4.53;;;2.25;;
60078;SDS011;45951;45.824;8.824;2024-03-29T02:22:27;4.93;;;2.20;;
60078;SDS011;45951;45.824;8.824;2024-03-29T02:24:08;3.13;;;2.05;;
60078;SDS011;45951;45.824;8.824;2024-03-29T02:25:49;2.88;;;1.98;;
60078;SDS011;45951;45.824;8.824;2024-03-29T02:27:29;3.53;;;2.30;;
60078;SDS011;45951;45.824;8.824;2024-03-29T02:29:09;3.58;;;2.05;;
60078;SDS011;45951;45.824;8.824;2024-03-29T02:30:50;2.63;;;1.98;;
60078;SDS011;45951;45.824;8.824;2024-03-29T02:32:30;2.92;;;2.03;;
60078;SDS011;45951;45.824;8.824;2024-03-29T02:34:10;3.13;;;2.07;;
60078;SDS011;45951;45.824;8.824;2024-03-29T02:35:50;5.35;;;2.38;;
60078;SDS011;45951;45.824;8.824;2024-03-29T02:37:31;2.87;;;2.17;;
60078;SDS011;45951;45.824;8.824;2024-03-29T02:39:11;3.37;;;2.00;;
60078;SDS011;45951;45.824;8.824;2024-03-29T02:40:51;2.83;;;2.00;;
60078;SDS011;45951;45.824;8.824;2024-03-29T02:42:31;2.40;;;1.97;;
60078;SDS011;45951;45.824;8.824;2024-03-29T02:44:12;3.72;;;2.10;;
60078;SDS011;45951;45.824;8.824;2024-03-29T02:45:52;3.10;;;2.03;;
60078;SDS011;45951;45.824;8.824;2024-03-29T02:47:32;2.80;;;1.70;;
60078;SDS011;45951;45.824;8.824;2024-03-29T02:49:13;2.80;;;1.90;;
60078;SDS011;45951;45.824;8.824;2024-03-29T02:50:53;2.95;;;1.88;;
60078;SDS011;45951;45.824;8.824;2024-03-29T02:52:33;3.23;;;1.90;;
60078;SDS011;45951;45.824;8.824;2024-03-29T02:54:13;1.98;;;1.63;;
60078;SDS011;45951;45.824;8.824;2024-03-29T02:55:53;3.10;;;1.80;;
60078;SDS011;45951;45.824;8.824;2024-03-29T02:57:33;3.37;;;2.00;;
60078;SDS011;45951;45.824;8.824;2024-03-29T02:59:14;2.47;;;1.70;;
60078;SDS011;45951;45.824;8.824;2024-03-29T03:00:54;3.13;;;1.80;;
60078;SDS011;45951;45.824;8.824;2024-03-29T03:02:40;2.13;;;1.60;;
60078;SDS011;45951;45.824;8.824;2024-03-29T03:04:20;3.60;;;1.88;;
60078;SDS011;45951;45.824;8.824;2024-03-29T03:06:01;2.80;;;1.90;;
60078;SDS011;45951;45.824;8.824;2024-03-29T03:07:41;3.03;;;1.90;;
60078;SDS011;45951;45.824;8.824;2024-03-29T03:09:40;2.15;;;1.60;;
60078;SDS011;45951;45.824;8.824;2024-03-29T03:11:39;2.55;;;1.70;;
60078;SDS011;45951;45.824;8.824;2024-03-29T03:13:19;2.63;;;1.80;;
60078;SDS011;45951;45.824;8.824;2024-03-29T03:14:59;3.50;;;1.90;;
60078;SDS011;45951;45.824;8.824;2024-03-29T03:16:39;3.20;;;1.93;;
60078;SDS011;45951;45.824;8.824;2024-03-29T03:18:19;2.55;;;2.00;;
60078;SDS011;45951;45.824;8.824;2024-03-29T03:20:00;5.60;;;1.90;;
60078;SDS011;45951;45.824;8.824;2024-03-29T03:21:40;3.08;;;1.98;;
60078;SDS011;45951;45.824;8.824;2024-03-29T03:23:20;2.78;;;2.13;;
60078;SDS011;45951;45.824;8.824;2024-03-29T03:25:00;2.92;;;2.05;;
60078;SDS011;45951;45.824;8.824;2024-03-29T03:26:41;2.53;;;1.60;;
60078;SDS011;45951;45.824;8.824;2024-03-29T03:28:21;3.97;;;2.00;;
60078;SDS011;45951;45.824;8.824;2024-03-29T03:30:01;3.80;;;2.15;;
60078;SDS011;45951;45.824;8.824;2024-03-29T03:31:41;4.38;;;2.13;;
60078;SDS011;45951;45.824;8.824;2024-03-29T03:33:22;4.18;;;2.35;;
60078;SDS011;45951;45.824;8.824;2024-03-29T03:35:02;2.83;;;1.90;;
60078;SDS011;45951;45.824;8.824;2024-03-29T03:36:42;2.83;;;1.90;;
60078;SDS011;45951;45.824;8.824;2024-03-29T03:38:23;4.97;;;2.10;;
60078;SDS011;45951;45.824;8.824;2024-03-29T03:40:03;2.60;;;1.90;;
60078;SDS011;45951;45.824;8.824;2024-03-29T03:41:44;3.20;;;2.10;;
60078;SDS011;45951;45.824;8.824;2024-03-29T03:43:24;2.70;;;2.00;;
60078;SDS011;45951;45.824;8.824;2024-03-29T03:45:04;3.87;;;2.40;;
60078;SDS011;45951;45.824;8.824;2024-03-29T03:46:44;4.88;;;2.30;;
60078;SDS011;45951;45.824;8.824;2024-03-29T03:48:25;4.83;;;1.97;;
60078;SDS011;45951;45.824;8.824;2024-03-29T03:50:05;2.40;;;1.63;;
60078;SDS011;45951;45.824;8.824;2024-03-29T03:51:45;4.30;;;2.10;;
60078;SDS011;45951;45.824;8.824;2024-03-29T03:53:25;2.80;;;1.90;;
60078;SDS011;45951;45.824;8.824;2024-03-29T03:55:06;4.13;;;1.90;;
60078;SDS011;45951;45.824;8.824;2024-03-29T03:56:46;2.65;;;1.42;;
60078;SDS011;45951;45.824;8.824;2024-03-29T03:58:26;3.07;;;2.00;;
60078;SDS011;45951;45.824;8.824;2024-03-29T04:00:06;2.17;;;1.67;;
60078;SDS011;45951;45.824;8.824;2024-03-29T04:01:47;2.83;;;1.88;;
60078;SDS011;45951;45.824;8.824;2024-03-29T04:03:27;2.88;;;1.80;;
60078;SDS011;45951;45.824;8.824;2024-03-29T04:05:07;3.17;;;1.90;;
60078;SDS011;45951;45.824;8.824;2024-03-29T04:06:47;2.83;;;1.77;;
60078;SDS011;45951;45.824;8.824;2024-03-29T04:08:28;3.70;;;2.00;;
60078;SDS011;45951;45.824;8.824;2024-03-29T04:10:08;2.00;;;1.70;;
60078;SDS011;45951;45.824;8.824;2024-03-29T04:11:48;3.40;;;1.85;;
60078;SDS011;45951;45.824;8.824;2024-03-29T04:13:28;2.07;;;1.60;;
60078;SDS011;45951;45.824;8.824;2024-03-29T04:15:09;2.78;;;1.80;;
60078;SDS011;45951;45.824;8.824;2024-03-29T04:16:49;3.13;;;1.70;;
60078;SDS011;45951;45.824;8.824;2024-03-29T04:18:30;2.97;;;1.80;;
60078;SDS011;45951;45.824;8.824;2024-03-29T04:20:10;2.70;;;1.70;;
60078;SDS011;45951;45.824;8.824;2024-03-29T04:21:52;3.65;;;1.90;;
60078;SDS011;45951;45.824;8.824;2024-03-29T04:23:32;2.75;;;1.67;;
60078;SDS011;45951;45.824;8.824;2024-03-29T04:25:12;2.85;;;1.80;;
60078;SDS011;45951;45.824;8.824;2024-03-29T04:26:54;3.28;;;1.70;;
60078;SDS011;45951;45.824;8.824;2024-03-29T04:28:34;2.50;;;1.70;;
60078;SDS011;45951;45.824;8.824;2024-03-29T04:30:14;3.58;;;1.63;;
60078;SDS011;45951;45.824;8.824;2024-03-29T04:31:55;3.20;;;1.83;;
60078;SDS011;45951;45.824;8.824;2024-03-29T04:33:35;2.00;;;1.33;;
60078;SDS011;45951;45.824;8.824;2024-03-29T04:35:15;2.20;;;1.80;;
60078;SDS011;45951;45.824;8.824;2024-03-29T04:36:55;3.22;;;1.52;;
60078;SDS011;45951;45.824;8.824;2024-03-29T04:38:35;2.80;;;1.70;;
60078;SDS011;45951;45.824;8.824;2024-03-29T04:40:16;1.73;;;1.60;;
60078;SDS011;45951;45.824;8.824;2024-03-29T04:41:56;3.50;;;1.80;;
60078;SDS011;45951;45.824;8.824;2024-03-29T04:43:36;2.90;;;1.88;;
60078;SDS011;45951;45.824;8.824;2024-03-29T04:45:16;4.15;;;1.80;;
60078;SDS011;45951;45.824;8.824;2024-03-29T04:46:56;1.90;;;1.40;;
60078;SDS011;45951;45.824;8.824;2024-03-29T04:48:40;2.50;;;1.70;;
60078;SDS011;45951;45.824;8.824;2024-03-29T04:50:21;3.45;;;2.05;;
60078;SDS011;45951;45.824;8.824;2024-03-29T04:52:02;2.40;;;1.50;;
60078;SDS011;45951;45.824;8.824;2024-03-29T04:53:42;2.40;;;1.65;;
60078;SDS011;45951;45.824;8.824;2024-03-29T04:55:22;3.97;;;1.90;;
60078;SDS011;45951;45.824;8.824;2024-03-29T04:57:03;2.23;;;1.50;;
60078;SDS011;45951;45.824;8.824;2024-03-29T04:58:46;2.85;;;2.00;;
60078;SDS011;45951;45.824;8.824;2024-03-29T05:00:26;2.05;;;1.83;;
60078;SDS011;45951;45.824;8.824;2024-03-29T05:02:06;3.28;;;2.00;;
60078;SDS011;45951;45.824;8.824;2024-03-29T05:03:46;2.75;;;1.75;;
60078;SDS011;45951;45.824;8.824;2024-03-29T05:05:27;2.70;;;1.90;;
60078;SDS011;45951;45.824;8.824;2024-03-29T05:07:07;2.88;;;1.90;;
60078;SDS011;45951;45.824;8.824;2024-03-29T05:08:47;2.17;;;1.73;;
60078;SDS011;45951;45.824;8.824;2024-03-29T05:10:27;3.80;;;1.80;;
60078;SDS011;45951;45.824;8.824;2024-03-29T05:12:07;2.50;;;1.80;;
60078;SDS011;45951;45.824;8.824;2024-03-29T05:13:48;2.60;;;1.83;;
60078;SDS011;45951;45.824;8.824;2024-03-29T05:15:28;2.55;;;1.80;;
60078;SDS011;45951;45.824;8.824;2024-03-29T05:17:08;2.67;;;1.67;;
60078;SDS011;45951;45.824;8.824;2024-03-29T05:18:48;4.32;;;2.08;;
60078;SDS011;45951;45.824;8.824;2024-03-29T05:20:29;2.72;;;1.80;;
60078;SDS011;45951;45.824;8.824;2024-03-29T05:22:09;1.98;;;1.50;;
60078;SDS011;45951;45.824;8.824;2024-03-29T05:23:49;2.30;;;1.90;;
60078;SDS011;45951;45.824;8.824;2024-03-29T05:25:30;2.67;;;1.30;;
60078;SDS011;45951;45.824;8.824;2024-03-29T05:27:11;3.03;;;1.98;;
60078;SDS011;45951;45.824;8.824;2024-03-29T05:28:51;4.78;;;2.10;;
60078;SDS011;45951;45.824;8.824;2024-03-29T05:30:33;2.15;;;1.55;;
60078;SDS011;45951;45.824;8.824;2024-03-29T05:32:14;3.33;;;1.70;;
60078;SDS011;45951;45.824;8.824;2024-03-29T05:33:54;2.92;;;1.80;;
60078;SDS011;45951;45.824;8.824;2024-03-29T05:35:35;3.80;;;1.70;;
60078;SDS011;45951;45.824;8.824;2024-03-29T05:37:15;4.47;;;2.20;;
60078;SDS011;45951;45.824;8.824;2024-03-29T05:38:57;2.47;;;1.65;;
60078;SDS011;45951;45.824;8.824;2024-03-29T05:40:37;2.67;;;1.83;;
60078;SDS011;45951;45.824;8.824;2024-03-29T05:42:18;3.15;;;1.90;;
60078;SDS011;45951;45.824;8.824;2024-03-29T05:43:59;3.75;;;1.92;;
60078;SDS011;45951;45.824;8.824;2024-03-29T05:45:39;3.40;;;2.03;;
60078;SDS011;45951;45.824;8.824;2024-03-29T05:47:19;3.40;;;1.93;;
60078;SDS011;45951;45.824;8.824;2024-03-29T05:49:00;2.83;;;1.70;;
60078;SDS011;45951;45.824;8.824;2024-03-29T05:50:40;3.47;;;2.07;;
60078;SDS011;45951;45.824;8.824;2024-03-29T05:52:20;3.63;;;1.98;;
60078;SDS011;45951;45.824;8.824;2024-03-29T05:54:03;3.30;;;1.90;;
60078;SDS011;45951;45.824;8.824;2024-03-29T05:55:43;3.60;;;2.03;;
60078;SDS011;45951;45.824;8.824;2024-03-29T05:57:24;2.97;;;2.17;;
60078;SDS011;45951;45.824;8.824;2024-03-29T05:59:10;5.63;;;2.50;;
60078;SDS011;45951;45.824;8.824;2024-03-29T06:00:52;3.63;;;1.98;;
60078;SDS011;45951;45.824;8.824;2024-03-29T06:02:32;3.70;;;2.00;;
60078;SDS011;45951;45.824;8.824;2024-03-29T06:04:13;2.05;;;1.70;;
60078;SDS011;45951;45.824;8.824;2024-03-29T06:05:59;2.75;;;1.83;;
60078;SDS011;45951;45.824;8.824;2024-03-29T06:07:39;3.60;;;1.67;;
60078;SDS011;45951;45.824;8.824;2024-03-29T06:09:20;3.85;;;2.10;;
60078;SDS011;45951;45.824;8.824;2024-03-29T06:11:00;2.87;;;2.00;;
60078;SDS011;45951;45.824;8.824;2024-03-29T06:12:41;3.35;;;1.80;;
60078;SDS011;45951;45.824;8.824;2024-03-29T06:14:24;2.70;;;1.80;;
60078;SDS011;45951;45.824;8.824;2024-03-29T06:16:24;3.45;;;1.80;;
60078;SDS011;45951;45.824;8.824;2024-03-29T06:18:22;2.75;;;1.70;;
60078;SDS011;45951;45.824;8.824;2024-03-29T06:20:03;2.03;;;1.50;;
60078;SDS011;45951;45.824;8.824;2024-03-29T06:21:44;2.90;;;1.50;;
60078;SDS011;45951;45.824;8.824;2024-03-29T06:23:24;2.40;;;1.50;;
60078;SDS011;45951;45.824;8.824;2024-03-29T06:25:04;2.53;;;1.53;;
60078;SDS011;45951;45.824;8.824;2024-03-29T06:26:45;2.65;;;1.55;;
60078;SDS011;45951;45.824;8.824;2024-03-29T06:28:25;1.77;;;1.07;;
60078;SDS011;45951;45.824;8.824;2024-03-29T06:30:05;3.42;;;1.48;;
60078;SDS011;45951;45.824;8.824;2024-03-29T06:31:46;1.98;;;1.33;;
60078;SDS011;45951;45.824;8.824;2024-03-29T06:33:26;1.50;;;1.30;;
60078;SDS011;45951;45.824;8.824;2024-03-29T06:35:06;2.67;;;1.40;;
60078;SDS011;45951;45.824;8.824;2024-03-29T06:36:46;2.20;;;1.60;;
60078;SDS011;45951;45.824;8.824;2024-03-29T06:38:27;1.80;;;1.47;;
60078;SDS011;45951;45.824;8.824;2024-03-29T06:40:07;2.60;;;1.60;;
60078;SDS011;45951;45.824;8.824;2024-03-29T06:41:48;3.75;;;1.42;;
60078;SDS011;45951;45.824;8.824;2024-03-29T06:43:28;3.53;;;1.53;;
60078;SDS011;45951;45.824;8.824;2024-03-29T06:45:08;2.35;;;1.60;;
60078;SDS011;45951;45.824;8.824;2024-03-29T06:46:50;2.22;;;1.58;;
60078;SDS011;45951;45.824;8.824;2024-03-29T06:48:30;1.92;;;1.45;;
60078;SDS011;45951;45.824;8.824;2024-03-29T06:50:11;5.35;;;3.80;;
60078;SDS011;45951;45.824;8.824;2024-03-29T06:51:52;2.03;;;1.52;;
60078;SDS011;45951;45.824;8.824;2024-03-29T06:53:33;2.42;;;1.52;;
60078;SDS011;45951;45.824;8.824;2024-03-29T06:55:13;1.67;;;1.30;;
60078;SDS011;45951;45.824;8.824;2024-03-29T06:56:54;1.80;;;1.35;;
60078;SDS011;45951;45.824;8.824;2024-03-29T06:58:34;3.95;;;2.50;;
60078;SDS011;45951;45.824;8.824;2024-03-29T07:00:14;2.42;;;1.60;;
60078;SDS011;45951;45.824;8.824;2024-03-29T07:01:55;2.80;;;1.90;;
60078;SDS011;45951;45.824;8.824;2024-03-29T07:03:35;2.45;;;1.55;;
60078;SDS011;45951;45.824;8.824;2024-03-29T07:05:15;4.18;;;1.50;;
60078;SDS011;45951;45.824;8.824;2024-03-29T07:06:55;1.90;;;1.37;;
60078;SDS011;45951;45.824;8.824;2024-03-29T07:08:36;2.85;;;1.88;;
60078;SDS011;45951;45.824;8.824;2024-03-29T07:10:16;2.88;;;1.67;;
60078;SDS011;45951;45.824;8.824;2024-03-29T07:11:56;2.87;;;1.80;;
60078;SDS011;45951;45.824;8.824;2024-03-29T07:13:38;2.90;;;1.70;;
60078;SDS011;45951;45.824;8.824;2024-03-29T07:15:18;2.95;;;2.00;;
60078;SDS011;45951;45.824;8.824;2024-03-29T07:16:59;4.03;;;2.33;;
60078;SDS011;45951;45.824;8.824;2024-03-29T07:18:39;3.50;;;2.03;;
60078;SDS011;45951;45.824;8.824;2024-03-29T07:20:19;3.40;;;2.10;;
60078;SDS011;45951;45.824;8.824;2024-03-29T07:21:59;3.57;;;2.13;;
60078;SDS011;45951;45.824;8.824;2024-03-29T07:23:40;3.50;;;2.22;;
60078;SDS011;45951;45.824;8.824;2024-03-29T07:25:20;3.47;;;2.10;;
60078;SDS011;45951;45.824;8.824;2024-03-29T07:27:00;4.60;;;2.60;;
60078;SDS011;45951;45.824;8.824;2024-03-29T07:28:40;2.70;;;2.13;;
60078;SDS011;45951;45.824;8.824;2024-03-29T07:30:20;3.80;;;2.38;;
60078;SDS011;45951;45.824;8.824;2024-03-29T07:32:01;3.90;;;2.47;;
60078;SDS011;45951;45.824;8.824;2024-03-29T07:33:41;4.40;;;2.75;;
60078;SDS011;45951;45.824;8.824;2024-03-29T07:35:21;4.63;;;2.95;;
60078;SDS011;45951;45.824;8.824;2024-03-29T07:37:01;4.75;;;2.72;;
60078;SDS011;45951;45.824;8.824;2024-03-29T07:38:42;5.65;;;3.78;;
60078;SDS011;45951;45.824;8.824;2024-03-29T07:40:25;5.65;;;3.35;;
60078;SDS011;45951;45.824;8.824;2024-03-29T07:42:05;4.72;;;3.17;;
60078;SDS011;45951;45.824;8.824;2024-03-29T07:43:55;4.88;;;3.20;;
60078;SDS011;45951;45.824;8.824;2024-03-29T07:45:39;4.95;;;3.15;;
60078;SDS011;45951;45.824;8.824;2024-03-29T07:47:20;5.32;;;3.10;;
60078;SDS011;45951;45.824;8.824;2024-03-29T07:49:03;4.90;;;3.25;;
60078;SDS011;45951;45.824;8.824;2024-03-29T07:50:43;6.47;;;3.30;;
60078;SDS011;45951;45.824;8.824;2024-03-29T07:52:24;6.25;;;4.03;;
60078;SDS011;45951;45.824;8.824;2024-03-29T07:54:16;5.35;;;3.40;;
60078;SDS011;45951;45.824;8.824;2024-03-29T07:55:56;4.43;;;3.10;;
60078;SDS011;45951;45.824;8.824;2024-03-29T07:57:36;4.47;;;3.05;;
60078;SDS011;45951;45.824;8.824;2024-03-29T07:59:17;6.88;;;3.88;;
60078;SDS011;45951;45.824;8.824;2024-03-29T08:00:59;5.43;;;3.10;;
60078;SDS011;45951;45.824;8.824;2024-03-29T08:02:39;5.18;;;3.08;;
60078;SDS011;45951;45.824;8.824;2024-03-29T08:04:20;4.47;;;3.00;;
60078;SDS011;45951;45.824;8.824;2024-03-29T08:06:01;4.07;;;2.65;;
60078;SDS011;45951;45.824;8.824;2024-03-29T08:07:44;5.63;;;3.60;;
60078;SDS011;45951;45.824;8.824;2024-03-29T08:09:24;5.03;;;3.10;;
60078;SDS011;45951;45.824;8.824;2024-03-29T08:11:05;5.13;;;3.03;;
60078;SDS011;45951;45.824;8.824;2024-03-29T08:12:45;4.75;;;2.72;;
60078;SDS011;45951;45.824;8.824;2024-03-29T08:14:25;5.00;;;3.10;;
60078;SDS011;45951;45.824;8.824;2024-03-29T08:16:07;5.72;;;3.55;;
60078;SDS011;45951;45.824;8.824;2024-03-29T08:17:50;4.53;;;2.67;;
60078;SDS011;45951;45.824;8.824;2024-03-29T08:19:30;4.18;;;2.80;;
60078;SDS011;45951;45.824;8.824;2024-03-29T08:21:10;4.17;;;2.90;;
60078;SDS011;45951;45.824;8.824;2024-03-29T08:22:51;4.35;;;2.80;;
60078;SDS011;45951;45.824;8.824;2024-03-29T08:24:33;4.32;;;2.60;;
60078;SDS011;45951;45.824;8.824;2024-03-29T08:26:13;6.30;;;3.30;;
60078;SDS011;45951;45.824;8.824;2024-03-29T08:27:53;4.87;;;2.83;;
60078;SDS011;45951;45.824;8.824;2024-03-29T08:29:40;3.22;;;2.17;;
60078;SDS011;45951;45.824;8.824;2024-03-29T08:31:20;3.78;;;2.40;;
60078;SDS011;45951;45.824;8.824;2024-03-29T08:33:01;4.03;;;2.33;;
60078;SDS011;45951;45.824;8.824;2024-03-29T08:34:42;3.55;;;2.40;;
60078;SDS011;45951;45.824;8.824;2024-03-29T08:36:22;3.83;;;2.50;;
60078;SDS011;45951;45.824;8.824;2024-03-29T08:38:03;4.00;;;2.40;;
60078;SDS011;45951;45.824;8.824;2024-03-29T08:39:43;3.83;;;2.50;;
60078;SDS011;45951;45.824;8.824;2024-03-29T08:41:24;3.28;;;2.28;;
60078;SDS011;45951;45.824;8.824;2024-03-29T08:43:04;4.25;;;2.75;;
60078;SDS011;45951;45.824;8.824;2024-03-29T08:44:44;3.72;;;2.30;;
60078;SDS011;45951;45.824;8.824;2024-03-29T08:46:25;3.10;;;2.13;;
60078;SDS011;45951;45.824;8.824;2024-03-29T08:48:06;3.85;;;2.30;;
60078;SDS011;45951;45.824;8.824;2024-03-29T08:49:47;3.65;;;2.33;;
60078;SDS011;45951;45.824;8.824;2024-03-29T08:51:27;3.90;;;2.30;;
60078;SDS011;45951;45.824;8.824;2024-03-29T08:53:07;2.73;;;1.73;;
60078;SDS011;45951;45.824;8.824;2024-03-29T08:54:47;3.33;;;1.95;;
60078;SDS011;45951;45.824;8.824;2024-03-29T08:56:28;2.85;;;1.98;;
60078;SDS011;45951;45.824;8.824;2024-03-29T08:58:08;3.05;;;2.00;;
60078;SDS011;45951;45.824;8.824;2024-03-29T08:59:48;3.23;;;2.00;;
60078;SDS011;45951;45.824;8.824;2024-03-29T09:01:28;3.43;;;1.80;;
60078;SDS011;45951;45.824;8.824;2024-03-29T09:03:09;4.57;;;2.65;;
60078;SDS011;45951;45.824;8.824;2024-03-29T09:04:49;2.97;;;1.90;;
60078;SDS011;45951;45.824;8.824;2024-03-29T09:06:29;3.22;;;1.95;;
60078;SDS011;45951;45.824;8.824;2024-03-29T09:08:09;3.53;;;1.90;;
60078;SDS011;45951;45.824;8.824;2024-03-29T09:09:50;2.63;;;1.70;;
60078;SDS011;45951;45.824;8.824;2024-03-29T09:11:30;3.42;;;1.73;;
60078;SDS011;45951;45.824;8.824;2024-03-29T09:13:10;4.13;;;2.00;;
60078;SDS011;45951;45.824;8.824;2024-03-29T09:14:50;3.15;;;1.95;;
60078;SDS011;45951;45.824;8.824;2024-03-29T09:16:32;2.30;;;1.50;;
60078;SDS011;45951;45.824;8.824;2024-03-29T09:18:12;2.30;;;1.60;;
60078;SDS011;45951;45.824;8.824;2024-03-29T09:20:06;2.80;;;1.85;;
60078;SDS011;45951;45.824;8.824;2024-03-29T09:21:47;3.88;;;2.33;;
60078;SDS011;45951;45.824;8.824;2024-03-29T09:23:27;2.08;;;1.67;;
60078;SDS011;45951;45.824;8.824;2024-03-29T09:25:10;2.90;;;1.90;;
60078;SDS011;45951;45.824;8.824;2024-03-29T09:26:53;3.17;;;2.13;;
60078;SDS011;45951;45.824;8.824;2024-03-29T09:28:33;5.10;;;2.37;;
60078;SDS011;45951;45.824;8.824;2024-03-29T09:30:16;4.63;;;2.30;;
60078;SDS011;45951;45.824;8.824;2024-03-29T09:31:58;3.90;;;2.22;;
60078;SDS011;45951;45.824;8.824;2024-03-29T09:33:38;3.63;;;2.60;;
60078;SDS011;45951;45.824;8.824;2024-03-29T09:35:19;3.75;;;2.55;;
60078;SDS011;45951;45.824;8.824;2024-03-29T09:36:59;3.17;;;1.80;;
60078;SDS011;45951;45.824;8.824;2024-03-29T09:38:39;4.57;;;2.00;;
60078;SDS011;45951;45.824;8.824;2024-03-29T09:40:20;3.50;;;2.10;;
60078;SDS011;45951;45.824;8.824;2024-03-29T09:42:00;3.88;;;2.35;;
60078;SDS011;45951;45.824;8.824;2024-03-29T09:43:42;4.25;;;2.53;;
60078;SDS011;45951;45.824;8.824;2024-03-29T09:45:24;3.65;;;2.60;;
60078;SDS011;45951;45.824;8.824;2024-03-29T09:47:05;4.03;;;2.53;;
60078;SDS011;45951;45.824;8.824;2024-03-29T09:48:46;4.97;;;2.70;;
60078;SDS011;45951;45.824;8.824;2024-03-29T09:50:27;4.20;;;2.42;;
60078;SDS011;45951;45.824;8.824;2024-03-29T09:52:07;4.87;;;2.70;;
60078;SDS011;45951;45.824;8.824;2024-03-29T09:53:48;3.90;;;2.83;;
60078;SDS011;45951;45.824;8.824;2024-03-29T09:55:29;4.43;;;2.47;;
60078;SDS011;45951;45.824;8.824;2024-03-29T09:57:09;3.58;;;2.20;;
60078;SDS011;45951;45.824;8.824;2024-03-29T09:58:51;4.00;;;2.50;;
60078;SDS011;45951;45.824;8.824;2024-03-29T10:00:31;3.08;;;2.00;;
60078;SDS011;45951;45.824;8.824;2024-03-29T10:02:14;3.08;;;1.83;;
60078;SDS011;45951;45.824;8.824;2024-03-29T10:03:55;3.65;;;2.15;;
60078;SDS011;45951;45.824;8.824;2024-03-29T10:05:36;3.50;;;2.13;;
60078;SDS011;45951;45.824;8.824;2024-03-29T10:07:16;2.50;;;2.05;;